Time;durP1;ratioP1;P1;durP2;ratioP2;P2;SDS_P1;SDS_P2;PMS_P1;PMS_P2;Temp;Humidity;BMP_temperature;BMP_pressure;BME280_temperature;BME280_humidity;BME280_pressure;Samples;Min_cycle;Max_cycle;Signal;HPM_P1;HPM_P2
2022/11/11 00:02:14;;;;;;;0.22;0.20;;;;;;;7.17;86.31;100073.81;6206503;23;20024;-64
2022/11/11 00:04:58;;;;;;;0.20;0.20;;;;;;;7.15;86.31;100067.78;6214342;23;20107;-64
2022/11/11 00:07:44;;;;;;;0.20;0.20;;;;;;;7.10;86.66;100065.81;6180156;23;20052;-64
2022/11/11 00:10:29;;;;;;;0.10;0.10;;;;;;;7.07;87.24;100064.38;6179648;23;20021;-64
2022/11/11 00:13:14;;;;;;;0.13;0.13;;;;;;;7.04;87.66;100075.75;6178299;23;20115;-64
2022/11/11 00:16:04;;;;;;;0.13;0.13;;;;;;;7.02;87.75;100067.03;6218070;23;20031;-64
2022/11/11 00:25:05;;;;;;;0.20;0.20;;;;;;;7.05;88.12;100052.94;6215958;23;20025;-64
2022/11/11 00:27:49;;;;;;;0.20;0.20;;;;;;;7.07;88.44;100067.13;6217361;23;20464;-64
2022/11/11 00:30:34;;;;;;;0.20;0.20;;;;;;;7.01;88.63;100051.78;6181135;23;20341;-64
2022/11/11 00:33:19;;;;;;;0.10;0.10;;;;;;;7.03;89.09;100059.72;6207410;23;20052;-64
2022/11/11 00:36:03;;;;;;;0.10;0.10;;;;;;;7.00;89.53;100060.19;6176331;23;20024;-64
2022/11/11 00:38:48;;;;;;;0.10;0.10;;;;;;;6.94;90.01;100059.25;6215330;23;20103;-65
2022/11/11 00:41:34;;;;;;;0.20;0.20;;;;;;;6.91;90.45;100057.88;6178949;23;20039;-65
2022/11/11 00:44:18;;;;;;;0.15;0.15;;;;;;;6.95;90.83;100059.03;6207156;23;20043;-65
2022/11/11 00:53:15;;;;;;;0.10;0.10;;;;;;;6.92;90.88;100056.81;6217225;23;20017;-63
2022/11/11 00:56:00;;;;;;;0.15;0.15;;;;;;;6.91;90.93;100049.72;6207715;23;20502;-64
2022/11/11 00:58:45;;;;;;;0.13;0.13;;;;;;;6.96;91.13;100040.84;6216888;23;20020;-65
2022/11/11 01:01:30;;;;;;;0.10;0.10;;;;;;;6.97;90.87;100044.38;6203723;23;20020;-64
2022/11/11 01:04:15;;;;;;;0.10;0.10;;;;;;;6.93;91.06;100039.41;6217999;23;20028;-65
2022/11/11 01:06:59;;;;;;;0.10;0.10;;;;;;;6.91;91.25;100033.41;6209243;23;20032;-64
2022/11/11 01:09:43;;;;;;;0.20;0.20;;;;;;;6.99;91.25;100039.50;6216679;23;20464;-64
2022/11/11 01:12:30;;;;;;;0.10;0.10;;;;;;;7.04;91.50;100047.75;6180886;23;20021;-63
2022/11/11 01:15:16;;;;;;;0.10;0.10;;;;;;;7.03;91.38;100044.22;6207651;23;20024;-65
2022/11/11 01:18:00;;;;;;;0.10;0.10;;;;;;;7.01;91.64;100054.50;6215109;23;20024;-65
2022/11/11 01:20:45;;;;;;;0.20;0.20;;;;;;;6.95;91.96;100042.72;6193333;23;20025;-64
2022/11/11 01:23:32;;;;;;;0.10;0.10;;;;;;;6.93;92.04;100042.13;6159664;23;20020;-65
2022/11/11 01:26:18;;;;;;;0.10;0.10;;;;;;;6.93;91.92;100047.56;6216927;23;20032;-64
2022/11/11 01:29:03;;;;;;;0.20;0.20;;;;;;;6.87;92.25;100040.41;6215620;23;20032;-65
2022/11/11 01:31:49;;;;;;;0.15;0.15;;;;;;;6.90;92.42;100041.78;6205010;23;20035;-64
2022/11/11 01:34:33;;;;;;;0.10;0.10;;;;;;;6.86;92.43;100041.44;6205967;23;20017;-65
2022/11/11 01:37:17;;;;;;;0.10;0.10;;;;;;;6.84;92.60;100040.06;6207002;23;20031;-64
2022/11/11 01:40:02;;;;;;;0.20;0.20;;;;;;;6.89;92.58;100048.31;6206158;23;20103;-63
2022/11/11 01:42:48;;;;;;;0.10;0.10;;;;;;;6.89;92.65;100046.41;6185740;23;20028;-64
2022/11/11 01:45:50;;;;;;;0.10;0.10;;;;;;;6.91;92.71;100054.31;6203243;23;20020;-64
2022/11/11 01:51:49;;;;;;;0.10;0.10;;;;;;;6.78;92.68;100034.50;6202161;23;20020;-64
2022/11/11 01:54:39;;;;;;;0.10;0.10;;;;;;;6.76;92.83;100039.38;6212830;23;20021;-64
2022/11/11 01:57:30;;;;;;;0.10;0.10;;;;;;;6.86;93.10;100046.06;6179668;23;20051;-64
2022/11/11 02:00:17;;;;;;;0.10;0.10;;;;;;;6.84;93.08;100043.59;6203388;23;20475;-64
2022/11/11 02:03:04;;;;;;;;;;;;;;;6.86;93.20;100046.06;6215377;23;20020;-63
2022/11/11 02:05:54;;;;;;;0.10;0.10;;;;;;;6.86;93.43;100048.78;6206633;23;19920;-63
2022/11/11 02:08:39;;;;;;;0.10;0.10;;;;;;;6.85;93.03;100047.16;6211028;23;20017;-66
2022/11/11 02:14:41;;;;;;;0.10;0.10;;;;;;;6.80;93.43;100047.88;6208871;23;20028;-66
2022/11/11 02:17:29;;;;;;;0.10;0.10;;;;;;;6.67;93.83;100019.13;6204227;23;20032;-67
2022/11/11 02:20:17;;;;;;;0.10;0.10;;;;;;;6.70;94.20;100026.78;6207369;23;20025;-66
2022/11/11 02:23:08;;;;;;;0.20;0.20;;;;;;;6.70;94.40;100043.06;6196176;23;20111;-65
2022/11/11 02:25:55;;;;;;;0.10;0.10;;;;;;;6.65;94.79;100041.09;6205981;23;20036;-66
2022/11/11 02:28:40;;;;;;;0.20;0.20;;;;;;;6.65;94.87;100037.56;6217387;23;20107;-66
2022/11/11 02:31:27;;;;;;;0.10;0.10;;;;;;;6.70;95.00;100044.97;6217741;23;20063;-64
2022/11/11 02:34:11;;;;;;;0.10;0.10;;;;;;;6.73;94.99;100034.44;6213666;23;20024;-64
2022/11/11 02:36:56;;;;;;;0.10;0.10;;;;;;;6.74;94.82;100038.78;6214597;23;20020;-64
2022/11/11 02:39:45;;;;;;;0.10;0.10;;;;;;;6.70;94.63;100032.22;6206777;23;20020;-64
2022/11/11 02:42:34;;;;;;;0.10;0.10;;;;;;;6.69;94.96;100043.31;6216884;23;20017;-64
2022/11/11 02:45:19;;;;;;;0.10;0.10;;;;;;;6.66;94.93;100039.19;6208566;23;20100;-64
2022/11/11 02:48:04;;;;;;;0.10;0.10;;;;;;;6.69;95.13;100040.59;6215503;23;20475;-63
2022/11/11 02:50:48;;;;;;;0.10;0.10;;;;;;;6.70;95.11;100039.53;6201747;23;20029;-64
2022/11/11 02:53:33;;;;;;;0.10;0.10;;;;;;;6.69;94.88;100043.31;6205630;23;20029;-64
2022/11/11 02:57:06;;;;;;;0.10;0.10;;;;;;;6.73;94.92;100039.88;6204236;23;20044;-64
2022/11/11 02:59:24;;;;;;;0.10;0.10;;;;;;;6.78;94.68;100037.22;6211439;23;20523;-64
2022/11/11 03:02:08;;;;;;;0.10;0.10;;;;;;;6.80;94.55;100037.84;6208283;23;20099;-64
2022/11/11 03:04:53;;;;;;;0.10;0.10;;;;;;;6.85;94.59;100039.81;6214228;23;20028;-64
2022/11/11 03:07:37;;;;;;;0.10;0.10;;;;;;;6.89;94.15;100046.41;6206590;23;20078;-64
2022/11/11 03:10:21;;;;;;;0.10;0.10;;;;;;;6.85;94.02;100033.56;6202276;23;20031;-64
2022/11/11 03:13:06;;;;;;;0.10;0.10;;;;;;;6.84;93.77;100040.88;6212365;23;20103;-65
2022/11/11 03:15:52;;;;;;;0.10;0.10;;;;;;;6.82;93.88;100034.84;6206126;23;20032;-65
2022/11/11 03:18:36;;;;;;;0.10;0.10;;;;;;;6.84;93.83;100029.19;6206551;23;20035;-65
2022/11/11 03:21:20;;;;;;;0.10;0.10;;;;;;;6.84;93.72;100032.72;6206806;23;20300;-64
2022/11/11 03:24:05;;;;;;;0.10;0.10;;;;;;;6.88;93.42;100044.78;6208752;23;20020;-64
2022/11/11 03:26:50;;;;;;;0.10;0.10;;;;;;;6.88;93.15;100046.66;6207259;23;20351;-64
2022/11/11 03:29:34;;;;;;;0.10;0.10;;;;;;;6.90;93.20;100042.63;6219137;23;20017;-64
2022/11/11 03:32:20;;;;;;;0.10;0.10;;;;;;;6.91;92.91;100047.00;6206423;23;20017;-64
2022/11/11 03:35:04;;;;;;;0.10;0.10;;;;;;;6.92;92.93;100043.22;6208003;23;20071;-64
2022/11/11 03:40:55;;;;;;;0.10;0.10;;;;;;;6.94;92.47;100038.34;6205610;23;20028;-64
2022/11/11 03:43:39;;;;;;;0.10;0.10;;;;;;;6.96;92.26;100046.28;6207453;23;20020;-65
2022/11/11 03:46:23;;;;;;;0.10;0.10;;;;;;;6.93;92.35;100047.56;6210381;23;20055;-64
2022/11/11 03:49:09;;;;;;;0.10;0.10;;;;;;;6.95;92.09;100042.72;6205922;23;20020;-64
2022/11/11 03:51:53;;;;;;;0.10;0.10;;;;;;;6.97;92.34;100056.06;6215070;23;20051;-65
2022/11/11 03:54:38;;;;;;;0.10;0.10;;;;;;;6.94;92.49;100054.66;6204153;23;20084;-65
2022/11/11 03:57:31;;;;;;;0.10;0.10;;;;;;;6.88;92.90;100055.66;6207354;23;20028;-64
2022/11/11 04:00:19;;;;;;;0.10;0.10;;;;;;;6.85;93.34;100050.69;6184906;23;20028;-65
2022/11/11 04:12:17;;;;;;;0.10;0.10;;;;;;;6.91;93.33;100049.72;6216355;23;20482;-64
2022/11/11 04:18:05;;;;;;;0.10;0.10;;;;;;;6.84;93.28;100054.47;6203435;23;20038;-67
2022/11/11 04:23:54;;;;;;;0.10;0.10;;;;;;;6.83;93.81;100055.53;6213034;23;20021;-67
2022/11/11 04:26:39;;;;;;;0.13;0.13;;;;;;;6.91;93.76;100051.59;6207170;23;20048;-67
2022/11/11 04:29:30;;;;;;;0.10;0.10;;;;;;;6.95;93.76;100063.66;6204218;23;20103;-66
2022/11/11 04:32:34;;;;;;;0.10;0.10;;;;;;;6.98;93.46;100065.88;6214545;23;20024;-66
2022/11/11 04:35:18;;;;;;;0.10;0.10;;;;;;;6.99;93.26;100066.69;6207645;23;20111;-66
2022/11/11 04:41:10;;;;;;;0.10;0.10;;;;;;;6.94;93.07;100061.97;6178730;23;20051;-64
2022/11/11 04:46:57;;;;;;;0.10;0.10;;;;;;;7.02;92.69;100077.91;6207246;23;20074;-64
2022/11/11 04:49:42;;;;;;;0.10;0.10;;;;;;;7.01;92.64;100075.41;6213431;23;20028;-64
2022/11/11 04:52:27;;;;;;;0.10;0.10;;;;;;;7.05;92.70;100090.19;6216834;23;20021;-64
2022/11/11 04:58:18;;;;;;;0.10;0.10;;;;;;;7.07;92.61;100094.31;6212542;23;20116;-65
2022/11/11 05:01:03;;;;;;;0.10;0.10;;;;;;;7.07;92.43;100096.22;6201696;23;20028;-65
2022/11/11 05:03:47;;;;;;;0.10;0.10;;;;;;;7.04;92.38;100092.09;6202494;23;20476;-64
2022/11/11 05:09:35;;;;;;;0.10;0.10;;;;;;;7.06;91.99;100092.66;6209549;23;20051;-65
2022/11/11 05:12:20;;;;;;;0.10;0.10;;;;;;;7.09;91.97;100091.34;6195720;23;20333;-65
2022/11/11 05:21:22;;;;;;;0.10;0.10;;;;;;;7.15;91.35;100084.94;6203992;23;20028;-65
2022/11/11 05:27:10;;;;;;;0.10;0.10;;;;;;;7.15;91.86;100087.63;6215816;23;20459;-64
2022/11/11 05:29:55;;;;;;;0.10;0.10;;;;;;;7.20;91.82;100087.75;6206044;23;20482;-64
2022/11/11 05:32:41;;;;;;;0.10;0.10;;;;;;;7.18;91.56;100081.75;6214856;23;20127;-65
2022/11/11 05:35:26;;;;;;;0.10;0.10;;;;;;;7.24;91.40;100083.47;6213724;23;20107;-64
2022/11/11 05:38:20;;;;;;;0.10;0.10;;;;;;;7.21;91.31;100097.56;6213313;23;20024;-68
2022/11/11 05:41:06;;;;;;;0.10;0.10;;;;;;;7.17;91.19;100095.56;6172930;23;20025;-66
2022/11/11 05:43:51;;;;;;;0.10;0.10;;;;;;;7.16;90.97;100093.91;6198196;23;20412;-67
2022/11/11 05:46:35;;;;;;;0.10;0.10;;;;;;;7.15;91.13;100098.53;6199788;23;20527;-67
2022/11/11 05:49:22;;;;;;;0.10;0.10;;;;;;;7.18;91.13;100095.34;6180983;23;20016;-65
2022/11/11 05:52:08;;;;;;;0.10;0.10;;;;;;;7.20;91.02;100095.91;6209365;23;20355;-67
2022/11/11 05:54:52;;;;;;;0.10;0.10;;;;;;;7.22;90.58;100101.09;6207025;23;20024;-67
2022/11/11 05:57:39;;;;;;;0.10;0.10;;;;;;;7.22;90.70;100092.94;6215968;23;20024;-66
2022/11/11 06:00:23;;;;;;;0.10;0.10;;;;;;;7.27;90.21;100105.81;6219977;23;20024;-67
2022/11/11 06:03:08;;;;;;;0.10;0.10;;;;;;;7.26;90.19;100105.00;6210042;23;20043;-67
2022/11/11 06:05:53;;;;;;;0.10;0.10;;;;;;;7.29;89.89;100101.78;6209771;23;20032;-66
2022/11/11 06:08:38;;;;;;;0.10;0.10;;;;;;;7.30;89.55;100108.84;6219013;23;20021;-67
2022/11/11 06:11:22;;;;;;;0.10;0.10;;;;;;;7.33;89.51;100111.09;6216396;23;20025;-64
2022/11/11 06:14:07;;;;;;;0.10;0.10;;;;;;;7.37;89.19;100122.31;6206984;23;20017;-64
2022/11/11 06:16:52;;;;;;;0.10;0.10;;;;;;;7.37;89.08;100111.44;6209262;23;20043;-64
2022/11/11 06:19:36;;;;;;;0.10;0.10;;;;;;;7.34;89.02;100117.38;6204975;23;20031;-65
2022/11/11 06:22:55;;;;;;;1.08;0.20;;;;;;;7.31;89.20;100110.50;6206782;23;20408;-64
2022/11/11 06:28:32;;;;;;;0.10;0.10;;;;;;;7.30;88.87;100138.78;6201603;23;20262;-65
2022/11/11 06:31:18;;;;;;;0.20;0.20;;;;;;;7.30;88.63;100133.34;6218121;23;20071;-65
2022/11/11 06:34:03;;;;;;;0.10;0.10;;;;;;;7.35;88.65;100129.88;6209071;23;20024;-64
2022/11/11 06:36:47;;;;;;;0.20;0.20;;;;;;;7.31;88.78;100132.28;6208965;23;20107;-64
2022/11/11 06:39:32;;;;;;;0.10;0.10;;;;;;;7.35;88.41;100136.13;6221076;23;20044;-64
2022/11/11 06:42:17;;;;;;;0.10;0.10;;;;;;;7.34;88.46;100137.22;6198603;23;20052;-64
2022/11/11 06:45:02;;;;;;;0.10;0.10;;;;;;;7.34;88.49;100130.97;6210655;23;20031;-64
2022/11/11 06:47:46;;;;;;;0.10;0.10;;;;;;;7.34;88.48;100128.25;6220328;23;20107;-64
2022/11/11 06:50:31;;;;;;;0.10;0.10;;;;;;;7.34;88.29;100139.94;6184275;23;20365;-64
2022/11/11 06:53:18;;;;;;;0.10;0.10;;;;;;;7.36;88.40;100136.97;6222308;23;20024;-64
2022/11/11 06:56:06;;;;;;;0.10;0.10;;;;;;;7.38;88.15;100138.38;6212829;23;20020;-65
2022/11/11 06:58:50;;;;;;;0.10;0.10;;;;;;;7.33;88.27;100134.72;6212648;23;20034;-65
2022/11/11 07:01:34;;;;;;;0.10;0.10;;;;;;;7.30;88.44;100132.50;6212351;23;20024;-65
2022/11/11 07:04:19;;;;;;;0.10;0.10;;;;;;;7.34;88.36;100144.56;6213063;23;20020;-64
2022/11/11 07:07:04;;;;;;;0.10;0.10;;;;;;;7.34;88.14;100148.09;6221565;23;20031;-64
2022/11/11 07:09:48;;;;;;;0.10;0.10;;;;;;;7.33;88.26;100134.72;6222538;23;20124;-65
2022/11/11 07:12:34;;;;;;;0.10;0.10;;;;;;;7.35;87.95;100149.75;6212727;23;20044;-64
2022/11/11 07:15:18;;;;;;;0.10;0.10;;;;;;;7.38;87.73;100146.53;6199442;23;20021;-64
2022/11/11 07:18:03;;;;;;;0.15;0.15;;;;;;;7.39;87.48;100147.38;6222186;23;20036;-65
2022/11/11 07:20:48;;;;;;;0.10;0.10;;;;;;;7.52;87.47;100140.78;6212744;23;20137;-64
2022/11/11 07:23:32;;;;;;;0.10;0.10;;;;;;;7.61;87.12;100139.31;6212744;23;20455;-64
2022/11/11 07:26:17;;;;;;;0.10;0.10;;;;;;;7.65;86.97;100139.66;6212937;23;20043;-64
2022/11/11 07:29:03;;;;;;;0.20;0.10;;;;;;;7.69;86.30;100148.97;6190708;23;20107;-64
2022/11/11 07:31:47;;;;;;;0.10;0.10;;;;;;;7.60;86.28;100140.38;6222343;23;20024;-64
2022/11/11 07:34:32;;;;;;;0.10;0.10;;;;;;;7.54;86.55;100144.06;6221946;23;20098;-64
2022/11/11 07:37:16;;;;;;;0.10;0.10;;;;;;;7.58;86.75;100160.75;6212196;23;20024;-64
2022/11/11 07:40:00;;;;;;;0.10;0.10;;;;;;;7.52;86.62;100157.94;6222197;23;20027;-64
2022/11/11 07:42:45;;;;;;;0.10;0.10;;;;;;;7.53;86.92;100161.47;6185532;23;20483;-64
2022/11/11 07:45:31;;;;;;;0.10;0.10;;;;;;;7.54;86.62;100165.84;6211388;23;20024;-65
2022/11/11 07:48:16;;;;;;;0.10;0.10;;;;;;;7.51;86.56;100164.47;6212049;23;20048;-65
2022/11/11 07:51:00;;;;;;;0.40;0.10;;;;;;;7.39;86.89;100141.94;6221770;23;20115;-64
2022/11/11 07:53:44;;;;;;;0.10;0.10;;;;;;;7.47;87.06;100157.03;6211975;23;20024;-65
2022/11/11 07:56:29;;;;;;;0.10;0.10;;;;;;;7.52;87.01;100167.97;6212184;23;20024;-65
2022/11/11 07:59:13;;;;;;;0.10;0.10;;;;;;;7.51;86.81;100172.63;6212708;23;20309;-64
2022/11/11 08:01:59;;;;;;;0.10;0.10;;;;;;;7.43;86.92;100170.28;6222660;23;20107;-64
2022/11/11 08:04:44;;;;;;;0.10;0.10;;;;;;;7.40;87.40;100169.94;6221675;23;20017;-64
2022/11/11 08:07:29;;;;;;;0.10;0.10;;;;;;;7.43;87.76;100173.00;6222354;23;20127;-64
2022/11/11 08:10:13;;;;;;;0.52;0.10;;;;;;;7.46;87.70;100175.22;6222477;23;20024;-64
2022/11/11 08:16:05;;;;;;;0.25;0.20;;;;;;;7.50;87.43;100183.75;6211611;23;20027;-64
2022/11/11 08:18:53;;;;;;;0.10;0.10;;;;;;;7.44;87.58;100180.09;6211708;23;20024;-64
2022/11/11 08:21:37;;;;;;;0.10;0.10;;;;;;;7.41;87.71;100167.00;6212382;23;20017;-64
2022/11/11 08:24:22;;;;;;;0.10;0.10;;;;;;;7.42;87.82;100171.34;6221426;23;20020;-64
2022/11/11 08:27:08;;;;;;;0.15;0.15;;;;;;;7.49;87.75;100165.75;6209833;23;20364;-64
2022/11/11 08:29:53;;;;;;;0.10;0.10;;;;;;;7.51;87.51;100169.91;6199111;23;20090;-64
2022/11/11 08:32:37;;;;;;;0.10;0.10;;;;;;;7.47;87.84;100152.38;6211904;23;20310;-64
2022/11/11 08:35:24;;;;;;;0.10;0.10;;;;;;;7.48;87.72;100156.75;6210976;23;20021;-64
2022/11/11 08:38:08;;;;;;;0.10;0.10;;;;;;;7.51;87.69;100150.84;6220966;23;20474;-64
2022/11/11 08:40:53;;;;;;;0.20;0.10;;;;;;;7.56;87.61;100157.44;6211491;23;20016;-64
2022/11/11 08:43:37;;;;;;;0.10;0.10;;;;;;;7.55;87.69;100156.59;6198413;23;20024;-64
2022/11/11 08:46:23;;;;;;;0.10;0.10;;;;;;;7.58;87.44;100155.31;6220837;23;20024;-64
2022/11/11 08:49:07;;;;;;;0.10;0.10;;;;;;;7.61;87.44;100152.91;6221696;23;20443;-64
2022/11/11 08:51:53;;;;;;;0.10;0.10;;;;;;;7.58;87.34;100144.41;6211786;23;20025;-64
2022/11/11 08:54:38;;;;;;;0.10;0.10;;;;;;;7.59;87.35;100146.06;6188586;23;20495;-65
2022/11/11 08:57:22;;;;;;;0.10;0.10;;;;;;;7.58;87.61;100150.69;6211722;23;20360;-64
2022/11/11 09:00:08;;;;;;;0.15;0.15;;;;;;;7.60;87.24;100150.44;6211536;23;20040;-65
2022/11/11 09:02:53;;;;;;;0.20;0.20;;;;;;;7.64;87.07;100148.84;6220788;23;20086;-64
2022/11/11 09:05:38;;;;;;;0.10;0.10;;;;;;;7.65;87.02;100150.53;6220945;23;20021;-65
2022/11/11 09:08:24;;;;;;;0.57;0.20;;;;;;;7.65;86.78;100155.97;6220743;23;20036;-64
2022/11/11 09:11:08;;;;;;;0.10;0.10;;;;;;;7.62;86.78;100157.28;6163445;23;20420;-64
2022/11/11 09:13:53;;;;;;;0.10;0.10;;;;;;;7.63;86.83;100152.66;6211641;23;20027;-64
2022/11/11 09:16:37;;;;;;;0.10;0.10;;;;;;;7.60;86.71;100147.72;6220961;23;20051;-64
2022/11/11 09:19:21;;;;;;;0.10;0.10;;;;;;;7.71;86.51;100165.03;6210816;23;20058;-65
2022/11/11 09:22:06;;;;;;;0.10;0.10;;;;;;;7.75;86.05;100163.50;6211665;23;20028;-64
2022/11/11 09:24:53;;;;;;;0.10;0.10;;;;;;;7.74;86.07;100153.69;6210813;23;20017;-64
2022/11/11 09:27:37;;;;;;;0.10;0.10;;;;;;;7.81;86.18;100165.22;6220857;23;20024;-64
2022/11/11 09:30:23;;;;;;;0.13;0.10;;;;;;;7.84;85.59;100161.19;6184299;23;20020;-65
2022/11/11 09:33:08;;;;;;;0.10;0.10;;;;;;;7.83;85.50;100168.50;6221183;23;20099;-64
2022/11/11 09:35:54;;;;;;;0.10;0.10;;;;;;;7.83;85.71;100164.97;6211212;23;20032;-66
2022/11/11 09:38:38;;;;;;;0.28;0.28;;;;;;;7.81;85.63;100165.22;6210838;23;20028;-65
2022/11/11 09:41:36;;;;;;;0.10;0.10;;;;;;;7.80;85.41;100175.28;6221427;23;20024;-64
2022/11/11 09:44:40;;;;;;;0.10;0.10;;;;;;;7.76;85.54;100173.31;6210927;23;20020;-64
2022/11/11 09:47:34;;;;;;;0.10;0.10;;;;;;;7.78;85.45;100173.88;6210367;23;20027;-64
2022/11/11 09:50:22;;;;;;;0.10;0.10;;;;;;;7.77;85.17;100178.47;6211398;23;20024;-64
2022/11/11 09:53:15;;;;;;;0.10;0.10;;;;;;;7.84;85.60;100175.59;6220341;23;20025;-64
2022/11/11 09:56:05;;;;;;;0.15;0.15;;;;;;;7.82;85.03;100171.50;6210953;23;20024;-64
2022/11/11 09:58:56;;;;;;;0.20;0.20;;;;;;;7.94;84.67;100183.09;6211062;23;20028;-64
2022/11/11 10:01:44;;;;;;;0.10;0.10;;;;;;;7.96;84.64;100186.44;6211684;23;20376;-64
2022/11/11 10:04:33;;;;;;;0.10;0.10;;;;;;;7.97;84.63;100176.34;6220675;23;20020;-65
2022/11/11 10:07:27;;;;;;;0.10;0.10;;;;;;;7.98;84.60;100172.53;6211935;23;20024;-64
2022/11/11 10:10:26;;;;;;;0.10;0.10;;;;;;;8.07;84.87;100168.34;6221085;23;20048;-64
2022/11/11 10:13:14;;;;;;;0.10;0.10;;;;;;;8.09;84.16;100171.63;6211509;23;20059;-64
2022/11/11 10:16:06;;;;;;;0.10;0.10;;;;;;;8.05;84.22;100176.75;6210354;23;20021;-64
2022/11/11 10:19:03;;;;;;;0.10;0.10;;;;;;;8.00;84.01;100181.28;6209993;23;20452;-64
2022/11/11 10:21:50;;;;;;;0.10;0.10;;;;;;;7.97;84.45;100174.47;6220867;23;20052;-64
2022/11/11 10:24:38;;;;;;;;;;;;;;;7.93;84.38;100179.56;6221419;23;20111;-64
2022/11/11 10:27:23;;;;;;;0.10;0.10;;;;;;;7.95;84.49;100184.75;6219833;23;19950;-64
2022/11/11 10:30:18;;;;;;;0.10;0.10;;;;;;;7.87;84.65;100191.44;6210876;23;20027;-64
2022/11/11 10:33:10;;;;;;;0.20;0.20;;;;;;;7.89;84.89;100197.47;6197996;23;20017;-64
2022/11/11 10:35:59;;;;;;;0.10;0.10;;;;;;;7.90;85.01;100199.13;6219817;23;20030;-65
2022/11/11 10:38:50;;;;;;;0.10;0.10;;;;;;;7.91;84.93;100206.22;6210958;23;20052;-64
2022/11/11 10:41:39;;;;;;;0.10;0.10;;;;;;;7.89;85.10;100213.81;6220201;23;20371;-64
2022/11/11 10:44:26;;;;;;;0.10;0.10;;;;;;;7.93;84.95;100214.13;6210757;23;20020;-64
2022/11/11 10:47:17;;;;;;;0.10;0.10;;;;;;;7.96;85.00;100216.38;6220927;23;20025;-64
2022/11/11 10:50:10;;;;;;;0.10;0.10;;;;;;;7.96;85.24;100221.81;6221174;23;20025;-64
2022/11/11 10:53:02;;;;;;;0.10;0.10;;;;;;;7.94;85.22;100219.34;6210511;23;20032;-64
2022/11/11 10:55:54;;;;;;;0.10;0.10;;;;;;;7.92;85.46;100223.38;6183764;23;20027;-65
2022/11/11 10:58:46;;;;;;;0.10;0.10;;;;;;;7.95;85.57;100217.44;6220595;23;20031;-64
2022/11/11 11:01:36;;;;;;;0.10;0.10;;;;;;;7.94;85.72;100215.78;6210758;23;20017;-64
2022/11/11 11:04:28;;;;;;;0.10;0.10;;;;;;;8.00;85.74;100208.53;6219994;23;20055;-64
2022/11/11 11:07:19;;;;;;;0.10;0.10;;;;;;;8.03;85.47;100203.41;6219513;23;20455;-64
2022/11/11 11:10:08;;;;;;;0.10;0.10;;;;;;;7.99;85.48;100204.16;6210487;23;20064;-64
2022/11/11 11:13:01;;;;;;;0.10;0.10;;;;;;;7.93;85.94;100222.28;6210525;23;20340;-64
2022/11/11 11:15:53;;;;;;;0.10;0.10;;;;;;;7.85;86.13;100220.00;6219700;23;20025;-64
2022/11/11 11:18:38;;;;;;;0.10;0.10;;;;;;;7.90;86.22;100225.50;6208886;23;20029;-64
2022/11/11 11:21:22;;;;;;;0.10;0.10;;;;;;;7.88;86.46;100227.66;6210066;23;20083;-64
2022/11/11 11:24:19;;;;;;;0.10;0.10;;;;;;;7.92;86.71;100234.25;6210164;23;20040;-64
2022/11/11 11:27:06;;;;;;;0.10;0.10;;;;;;;8.01;86.32;100240.97;6209945;23;20029;-64
2022/11/11 11:29:51;;;;;;;0.10;0.10;;;;;;;7.98;85.98;100233.28;6210035;23;20379;-64
2022/11/11 11:32:35;;;;;;;0.10;0.10;;;;;;;7.97;86.24;100241.69;6210254;23;20028;-64
2022/11/11 11:35:32;;;;;;;0.10;0.10;;;;;;;7.94;86.11;100243.84;6187827;23;20052;-64
2022/11/11 11:38:17;;;;;;;0.10;0.10;;;;;;;7.90;86.54;100250.03;6211190;23;20083;-64
2022/11/11 11:41:04;;;;;;;0.10;0.10;;;;;;;7.97;86.64;100250.72;6212380;23;20147;-64
2022/11/11 11:43:48;;;;;;;0.10;0.10;;;;;;;7.94;86.34;100243.84;6222154;23;20103;-64
2022/11/11 11:46:37;;;;;;;0.15;0.15;;;;;;;7.97;86.46;100249.88;6189428;23;20021;-64
2022/11/11 11:49:34;;;;;;;0.22;0.20;;;;;;;7.90;86.72;100239.13;6221855;23;20025;-64
2022/11/11 11:52:27;;;;;;;0.10;0.10;;;;;;;7.87;86.96;100242.34;6189206;23;20024;-64
2022/11/11 11:55:15;;;;;;;0.20;0.20;;;;;;;7.84;87.37;100240.94;6222261;23;20021;-64
2022/11/11 11:58:20;;;;;;;0.10;0.10;;;;;;;7.84;87.33;100237.41;6222149;23;20460;-64
2022/11/11 12:01:11;;;;;;;0.10;0.10;;;;;;;7.84;87.59;100240.13;6211670;23;20021;-66
2022/11/11 12:04:27;;;;;;;0.45;0.15;;;;;;;7.85;87.74;100239.06;6222587;23;20020;-64
2022/11/11 12:07:21;;;;;;;0.70;0.10;;;;;;;7.87;87.65;100235.00;6212141;23;20054;-64
2022/11/11 12:10:19;;;;;;;0.10;0.10;;;;;;;7.87;87.62;100239.63;6221995;23;20107;-64
2022/11/11 12:13:15;;;;;;;0.10;0.10;;;;;;;7.82;87.99;100225.94;6185194;23;20029;-63
2022/11/11 12:16:11;;;;;;;0.10;0.10;;;;;;;7.81;88.00;100225.09;6184416;23;20063;-64
2022/11/11 12:19:40;;;;;;;0.10;0.10;;;;;;;7.82;88.15;100228.66;6198692;23;20028;-64
2022/11/11 12:22:35;;;;;;;0.10;0.10;;;;;;;7.78;88.66;100231.03;6222193;23;20068;-64
2022/11/11 12:25:35;;;;;;;0.60;0.20;;;;;;;7.75;89.07;100224.19;6184843;23;20531;-64
2022/11/11 12:28:38;;;;;;;0.10;0.10;;;;;;;7.77;89.06;100224.75;6222271;23;20020;-64
2022/11/11 12:31:31;;;;;;;0.10;0.10;;;;;;;7.79;89.17;100219.88;6211876;23;20021;-64
2022/11/11 12:34:28;;;;;;;0.10;0.10;;;;;;;7.77;89.33;100224.75;6212248;23;20044;-64
2022/11/11 12:37:24;;;;;;;0.10;0.10;;;;;;;7.77;89.62;100213.06;6221826;23;20020;-64
2022/11/11 12:40:21;;;;;;;0.20;0.20;;;;;;;7.75;89.62;100217.94;6163755;23;20360;-64
2022/11/11 12:43:19;;;;;;;0.10;0.10;;;;;;;7.74;89.60;100216.28;6220108;23;20120;-64
2022/11/11 12:46:15;;;;;;;0.10;0.10;;;;;;;7.77;89.61;100219.31;6221440;23;20043;-64
2022/11/11 12:49:12;;;;;;;0.15;0.15;;;;;;;7.79;89.52;100217.16;6212662;23;20123;-64
2022/11/11 12:52:04;;;;;;;0.10;0.10;;;;;;;7.83;89.37;100216.69;6212651;23;20021;-64
2022/11/11 12:55:04;;;;;;;0.10;0.10;;;;;;;7.82;89.51;100212.31;6211494;23;20020;-64
2022/11/11 12:58:14;;;;;;;0.10;0.10;;;;;;;7.87;89.28;100217.84;6221445;23;20082;-64
2022/11/11 13:01:14;;;;;;;0.15;0.15;;;;;;;7.86;88.95;100225.19;6185115;23;20471;-64
2022/11/11 13:04:21;;;;;;;0.10;0.10;;;;;;;7.83;89.15;100216.69;6211544;23;20464;-64
2022/11/11 13:07:17;;;;;;;;;;;;;;;7.83;89.23;100222.94;6211349;23;20021;-64
2022/11/11 13:10:15;;;;;;;0.20;0.20;;;;;;;7.79;89.00;100205.47;6221559;23;19920;-64
2022/11/11 13:13:08;;;;;;;0.10;0.10;;;;;;;7.79;89.28;100208.19;6189446;23;20096;-64
2022/11/11 13:15:53;;;;;;;0.20;0.20;;;;;;;7.78;89.28;100214.72;6211401;23;20091;-64
2022/11/11 13:18:46;;;;;;;0.10;0.10;;;;;;;7.79;89.30;100205.47;6211369;23;20055;-64
2022/11/11 13:21:47;;;;;;;0.10;0.10;;;;;;;7.82;89.18;100210.41;6221445;23;20095;-64
2022/11/11 13:24:32;;;;;;;0.10;0.10;;;;;;;7.84;89.34;100215.63;6184245;23;20452;-64
2022/11/11 13:27:30;;;;;;;0.10;0.10;;;;;;;7.78;89.30;100218.25;6188254;23;20016;-66
2022/11/11 13:30:43;;;;;;;0.10;0.10;;;;;;;7.76;89.39;100211.41;6221855;23;20025;-66
2022/11/11 13:33:38;;;;;;;0.10;0.10;;;;;;;7.74;89.26;100208.13;6211152;23;20107;-66
2022/11/11 13:36:28;;;;;;;0.10;0.10;;;;;;;7.76;88.74;100209.50;6209879;23;20027;-66
2022/11/11 13:39:24;;;;;;;0.17;0.17;;;;;;;7.81;88.59;100208.75;6210834;23;20036;-67
2022/11/11 13:42:12;;;;;;;0.10;0.10;;;;;;;7.87;87.76;100209.69;6188502;23;20020;-66
2022/11/11 13:45:01;;;;;;;0.13;0.10;;;;;;;7.86;86.75;100217.00;6211183;23;20454;-66
2022/11/11 13:47:46;;;;;;;0.10;0.10;;;;;;;7.87;86.64;100217.84;6211477;23;20039;-66
2022/11/11 13:50:35;;;;;;;0.10;0.10;;;;;;;7.85;85.99;100230.88;6221044;23;20032;-66
2022/11/11 13:53:32;;;;;;;0.10;0.10;;;;;;;7.84;86.13;100213.72;6211665;23;20023;-66
2022/11/11 13:56:31;;;;;;;0.20;0.10;;;;;;;7.88;86.00;100222.22;6211353;23;20028;-66
2022/11/11 13:59:22;;;;;;;0.10;0.10;;;;;;;7.92;85.91;100224.22;6221091;23;20024;-66
2022/11/11 14:02:27;;;;;;;0.10;0.10;;;;;;;7.94;85.60;100218.50;6220775;23;20024;-66
2022/11/11 14:05:21;;;;;;;0.10;0.10;;;;;;;7.94;85.62;100218.50;6210650;23;20025;-66
2022/11/11 14:08:06;;;;;;;0.10;0.10;;;;;;;7.94;85.56;100221.22;6210819;23;20395;-66
2022/11/11 14:10:55;;;;;;;0.10;0.10;;;;;;;7.95;85.77;100209.25;6220731;23;20407;-66
2022/11/11 14:13:41;;;;;;;0.13;0.13;;;;;;;8.00;85.09;100216.69;6211135;23;20020;-66
2022/11/11 14:17:03;;;;;;;0.10;0.10;;;;;;;8.01;84.41;100202.00;6220340;23;20030;-66
2022/11/11 14:19:47;;;;;;;0.10;0.10;;;;;;;8.04;83.72;100213.22;6188456;23;20024;-66